Time;durP1;ratioP1;P1;durP2;ratioP2;P2;SDS_P1;SDS_P2;PMS_P1;PMS_P2;Temp;Humidity;BMP_temperature;BMP_pressure;BME280_temperature;BME280_humidity;BME280_pressure;Samples;Min_cycle;Max_cycle;Signal;HPM_P1;HPM_P2
2023/10/19 00:00:50;;;;;;;7.83;7.03;;;11.30;99.90;;;;;;5038970;28;20623;-73
2023/10/19 00:03:16;;;;;;;11.03;7.47;;;11.30;99.90;;;;;;5036440;28;20655;-73
2023/10/19 00:05:46;;;;;;;10.93;7.93;;;11.30;99.90;;;;;;5039170;28;20622;-72
2023/10/19 00:08:17;;;;;;;5.83;5.33;;;11.40;99.90;;;;;;5037171;28;20641;-73
2023/10/19 00:10:49;;;;;;;7.20;6.50;;;11.40;99.90;;;;;;5038912;28;20635;-73
2023/10/19 00:13:16;;;;;;;7.97;6.03;;;11.30;99.90;;;;;;5035108;28;20635;-73
2023/10/19 00:15:48;;;;;;;5.60;5.07;;;11.50;99.90;;;;;;5035301;28;20623;-72
2023/10/19 00:18:20;;;;;;;6.00;5.40;;;11.50;99.90;;;;;;5034170;28;20656;-73
2023/10/19 00:20:53;;;;;;;7.60;5.03;;;11.60;99.90;;;;;;5035571;28;20633;-72
2023/10/19 00:23:31;;;;;;;4.90;4.50;;;11.60;99.90;;;;;;5035656;28;21801;-72
2023/10/19 00:25:59;;;;;;;4.80;4.00;;;11.60;99.90;;;;;;5038429;28;20640;-72
2023/10/19 00:28:27;;;;;;;5.37;4.87;;;11.60;99.90;;;;;;5037425;28;20635;-72
2023/10/19 00:31:00;;;;;;;4.60;3.90;;;11.70;99.90;;;;;;5036297;28;20939;-72
2023/10/19 00:33:28;;;;;;;6.50;4.93;;;11.70;99.90;;;;;;5035154;28;20638;-72
2023/10/19 00:36:06;;;;;;;6.90;4.83;;;11.70;99.90;;;;;;5034797;28;21044;-72
2023/10/19 00:38:40;;;;;;;5.60;5.10;;;11.80;99.90;;;;;;5035049;28;20634;-73
2023/10/19 00:41:13;;;;;;;7.10;4.53;;;11.80;99.90;;;;;;5037658;28;21010;-73
2023/10/19 00:43:45;;;;;;;5.47;4.23;;;11.80;99.90;;;;;;5038592;28;20670;-73
2023/10/19 00:46:20;;;;;;;4.80;3.97;;;11.80;99.90;;;;;;5037558;28;21206;-72
2023/10/19 00:48:50;;;;;;;4.93;4.40;;;11.80;99.90;;;;;;5037177;28;20625;-72
2023/10/19 00:51:30;;;;;;;5.70;5.07;;;11.80;99.90;;;;;;5037779;28;20642;-73
2023/10/19 00:53:59;;;;;;;4.57;3.83;;;11.80;99.90;;;;;;5037616;28;20645;-73
2023/10/19 00:56:29;;;;;;;3.90;3.47;;;11.80;99.90;;;;;;5036950;28;20629;-72
2023/10/19 00:59:00;;;;;;;4.93;4.43;;;11.80;99.90;;;;;;5037860;28;20848;-73
2023/10/19 01:01:30;;;;;;;3.83;3.50;;;11.80;99.90;;;;;;5037043;28;20639;-72
2023/10/19 01:03:58;;;;;;;4.10;3.70;;;11.90;99.90;;;;;;5034058;28;20672;-72
2023/10/19 01:06:31;;;;;;;4.67;3.80;;;12.00;99.90;;;;;;5033824;28;20635;-72
2023/10/19 01:08:58;;;;;;;4.33;3.90;;;12.00;99.90;;;;;;5034019;28;20716;-72
2023/10/19 01:11:28;;;;;;;5.23;4.23;;;12.10;99.90;;;;;;5034668;28;20619;-73
2023/10/19 01:13:55;;;;;;;4.33;3.87;;;12.10;99.90;;;;;;5034746;28;20646;-73
2023/10/19 01:16:23;;;;;;;5.13;3.57;;;12.10;99.90;;;;;;5033345;28;20643;-73
2023/10/19 01:18:53;;;;;;;4.27;3.87;;;12.10;99.90;;;;;;5033444;28;20631;-73
2023/10/19 01:21:25;;;;;;;5.50;4.17;;;12.10;99.90;;;;;;5035331;28;21809;-73
2023/10/19 01:23:55;;;;;;;3.17;2.87;;;12.20;99.90;;;;;;5036377;28;20646;-74
2023/10/19 01:26:25;;;;;;;4.40;4.00;;;12.20;99.90;;;;;;5036411;28;21108;-73
2023/10/19 01:29:00;;;;;;;7.40;4.10;;;12.30;99.90;;;;;;5037097;28;20641;-73
2023/10/19 01:31:37;;;;;;;5.33;4.83;;;12.20;99.90;;;;;;5035972;28;20647;-73
2023/10/19 01:34:06;;;;;;;5.40;3.87;;;12.30;99.90;;;;;;5033879;28;21709;-73
2023/10/19 01:36:37;;;;;;;4.97;3.97;;;12.30;99.90;;;;;;5032146;28;20627;-73
2023/10/19 01:39:10;;;;;;;5.13;4.63;;;12.30;99.90;;;;;;5033597;28;20635;-73
2023/10/19 01:41:37;;;;;;;5.10;3.53;;;12.30;99.90;;;;;;5034186;28;20634;-73
2023/10/19 01:44:07;;;;;;;7.17;4.30;;;12.40;99.90;;;;;;5037356;28;20673;-73
2023/10/19 01:46:35;;;;;;;4.03;3.67;;;12.30;99.90;;;;;;5035605;28;20725;-73
2023/10/19 01:49:04;;;;;;;4.10;3.70;;;12.40;99.90;;;;;;5037033;28;20659;-73
2023/10/19 01:51:32;;;;;;;3.63;3.33;;;12.40;99.90;;;;;;5035886;28;20746;-73
2023/10/19 01:54:01;;;;;;;5.47;4.33;;;12.40;99.90;;;;;;5036605;28;20627;-73
2023/10/19 01:56:29;;;;;;;3.77;3.47;;;12.40;99.90;;;;;;5036112;28;20626;-73
2023/10/19 01:58:57;;;;;;;7.20;4.70;;;12.40;99.90;;;;;;5035196;28;20626;-73
2023/10/19 02:01:28;;;;;;;4.10;3.80;;;12.40;99.90;;;;;;5035205;28;20689;-73
2023/10/19 02:03:58;;;;;;;5.00;4.50;;;12.40;99.90;;;;;;5033644;28;20692;-73
2023/10/19 02:06:27;;;;;;;4.23;3.83;;;12.40;99.90;;;;;;5032820;28;21231;-73
2023/10/19 02:08:59;;;;;;;8.30;4.30;;;12.40;99.90;;;;;;5033206;28;20620;-73
2023/10/19 02:11:26;;;;;;;4.87;3.60;;;12.40;99.90;;;;;;5033984;28;20643;-73
2023/10/19 02:13:59;;;;;;;4.13;3.13;;;12.40;99.90;;;;;;5035778;28;20638;-73
2023/10/19 02:16:29;;;;;;;3.23;3.03;;;12.40;99.90;;;;;;5036675;28;20611;-73
2023/10/19 02:18:57;;;;;;;4.20;3.77;;;12.50;99.90;;;;;;5036199;28;20708;-73
2023/10/19 02:21:27;;;;;;;4.33;3.40;;;12.50;99.90;;;;;;5035883;28;21176;-73
2023/10/19 02:23:54;;;;;;;4.37;3.97;;;12.50;99.90;;;;;;5034971;28;20623;-73
2023/10/19 02:26:22;;;;;;;3.00;2.63;;;12.50;99.90;;;;;;5034986;28;20623;-73
2023/10/19 02:28:51;;;;;;;3.20;2.90;;;12.50;99.90;;;;;;5036486;28;20657;-74
2023/10/19 02:31:21;;;;;;;3.67;3.37;;;12.50;99.90;;;;;;5032431;28;20770;-74
2023/10/19 02:33:51;;;;;;;3.90;3.60;;;12.50;99.90;;;;;;5033099;28;20627;-73
2023/10/19 02:36:20;;;;;;;4.13;3.73;;;12.50;99.90;;;;;;5031912;28;20681;-73
2023/10/19 02:38:51;;;;;;;3.53;3.20;;;12.50;99.90;;;;;;5034058;28;20645;-73
2023/10/19 02:41:20;;;;;;;4.57;3.60;;;12.40;99.90;;;;;;5036130;28;21220;-73
2023/10/19 02:43:51;;;;;;;4.00;3.57;;;12.50;99.90;;;;;;5035717;28;20627;-73
2023/10/19 02:46:20;;;;;;;3.30;3.00;;;12.40;99.90;;;;;;5033343;28;20638;-73
2023/10/19 02:48:49;;;;;;;3.73;3.20;;;12.40;99.90;;;;;;5032788;28;20631;-73
2023/10/19 02:51:19;;;;;;;2.93;2.70;;;12.40;99.90;;;;;;5032742;28;20645;-73
2023/10/19 02:53:45;;;;;;;3.87;3.50;;;12.40;99.90;;;;;;5032775;28;21120;-73
2023/10/19 02:56:14;;;;;;;4.70;3.07;;;12.30;99.90;;;;;;5034997;28;20627;-73
2023/10/19 02:58:42;;;;;;;4.33;3.57;;;12.30;99.90;;;;;;5035781;28;21000;-74
2023/10/19 03:01:21;;;;;;;4.30;3.80;;;12.20;99.90;;;;;;5035016;28;20638;-73
2023/10/19 03:03:50;;;;;;;3.87;3.47;;;12.10;99.90;;;;;;5036196;28;20630;-73
2023/10/19 03:06:21;;;;;;;3.83;2.50;;;12.10;99.90;;;;;;5034939;28;20666;-73
2023/10/19 03:08:47;;;;;;;4.10;2.90;;;12.10;99.90;;;;;;5035647;28;20623;-73
2023/10/19 03:11:14;;;;;;;5.20;3.07;;;12.20;99.90;;;;;;5035720;28;20631;-73
2023/10/19 03:13:44;;;;;;;2.73;2.50;;;12.20;99.90;;;;;;5034425;28;20685;-73
2023/10/19 03:16:11;;;;;;;3.57;3.13;;;12.30;99.90;;;;;;5032556;28;20628;-73
2023/10/19 03:18:37;;;;;;;3.37;3.07;;;12.30;99.90;;;;;;5033066;28;20638;-73
2023/10/19 03:21:05;;;;;;;4.17;2.93;;;12.30;99.90;;;;;;5032677;28;20626;-73
2023/10/19 03:23:34;;;;;;;3.47;3.17;;;12.30;99.90;;;;;;5032653;28;20824;-73
2023/10/19 03:26:25;;;;;;;4.63;2.90;;;12.30;99.90;;;;;;5033696;28;20690;-74
2023/10/19 03:28:54;;;;;;;3.43;2.73;;;12.20;99.90;;;;;;5035900;28;20633;-74
2023/10/19 03:31:22;;;;;;;3.00;2.33;;;12.30;99.90;;;;;;5034826;28;20657;-73
2023/10/19 03:33:53;;;;;;;3.63;3.33;;;12.30;99.90;;;;;;5035158;28;20659;-73
2023/10/19 03:36:22;;;;;;;3.40;3.10;;;12.30;99.90;;;;;;5034898;28;20638;-73
2023/10/19 03:38:51;;;;;;;2.63;2.40;;;12.40;99.90;;;;;;5034492;28;20637;-73
2023/10/19 03:41:21;;;;;;;3.23;3.03;;;12.30;99.90;;;;;;5035646;28;20661;-74
2023/10/19 03:43:49;;;;;;;5.70;4.10;;;12.30;99.90;;;;;;5035502;28;21497;-74
2023/10/19 03:46:22;;;;;;;2.93;2.70;;;12.30;99.90;;;;;;5034988;28;20657;-73
2023/10/19 03:48:49;;;;;;;4.97;3.50;;;12.30;99.90;;;;;;5033763;28;20647;-73
2023/10/19 03:51:17;;;;;;;3.27;2.97;;;12.30;99.90;;;;;;5031703;28;20639;-73
2023/10/19 03:53:54;;;;;;;3.87;3.47;;;12.20;99.90;;;;;;5032280;28;20700;-73
2023/10/19 03:56:21;;;;;;;2.70;2.50;;;12.20;99.90;;;;;;5031299;28;21336;-73
2023/10/19 03:58:50;;;;;;;3.33;3.03;;;12.20;99.90;;;;;;5034796;28;20745;-74
2023/10/19 04:01:19;;;;;;;3.77;3.47;;;12.20;99.90;;;;;;5034478;28;20631;-73
2023/10/19 04:03:46;;;;;;;3.90;3.30;;;12.20;99.90;;;;;;5035578;28;20769;-73
2023/10/19 04:06:14;;;;;;;2.77;2.47;;;12.20;99.90;;;;;;5033939;28;20657;-73
2023/10/19 04:08:45;;;;;;;4.43;2.83;;;12.20;99.90;;;;;;5035149;28;20619;-73
2023/10/19 04:11:21;;;;;;;3.50;3.20;;;12.20;99.90;;;;;;5032466;28;20637;-74
2023/10/19 04:13:52;;;;;;;6.27;3.33;;;12.10;99.90;;;;;;5036084;28;20630;-73
2023/10/19 04:16:20;;;;;;;3.43;3.13;;;12.20;99.90;;;;;;5033706;28;21038;-73
2023/10/19 04:18:48;;;;;;;2.97;2.57;;;12.20;99.90;;;;;;5033341;28;20642;-74
2023/10/19 04:21:15;;;;;;;2.63;2.43;;;12.20;99.90;;;;;;5033885;28;22658;-73
2023/10/19 04:23:42;;;;;;;3.23;2.90;;;12.20;99.90;;;;;;5036000;28;20635;-73
2023/10/19 04:26:11;;;;;;;3.47;3.17;;;12.10;99.90;;;;;;5036223;28;20670;-73
2023/10/19 04:28:49;;;;;;;2.70;2.50;;;12.10;99.90;;;;;;5037170;28;21195;-73
2023/10/19 04:31:16;;;;;;;4.30;3.37;;;12.10;99.90;;;;;;5038531;28;20923;-73
2023/10/19 04:33:45;;;;;;;4.13;3.30;;;12.10;99.90;;;;;;5037953;28;20641;-73
2023/10/19 04:36:14;;;;;;;5.00;4.05;;;12.20;99.90;;;;;;5036103;28;20754;-74
2023/10/19 04:38:40;;;;;;;3.73;3.43;;;12.20;99.90;;;;;;5037590;28;20245;-73
2023/10/19 04:41:08;;;;;;;3.67;3.37;;;12.20;99.90;;;;;;5037352;28;20717;-73
2023/10/19 04:43:36;;;;;;;3.33;2.87;;;12.20;99.90;;;;;;5038874;28;21233;-74
2023/10/19 04:46:10;;;;;;;4.77;3.83;;;12.20;99.90;;;;;;5035317;28;20777;-75
2023/10/19 04:48:39;;;;;;;4.63;3.53;;;12.20;99.90;;;;;;5037890;28;20677;-74
2023/10/19 04:51:06;;;;;;;3.50;3.20;;;12.20;99.90;;;;;;5037645;28;21211;-74
2023/10/19 04:53:33;;;;;;;4.37;3.97;;;12.30;99.90;;;;;;5038481;28;20645;-75
2023/10/19 04:56:01;;;;;;;3.40;3.10;;;12.20;99.90;;;;;;5037218;28;20630;-74
2023/10/19 04:58:28;;;;;;;3.40;2.80;;;12.20;99.90;;;;;;5037748;28;20635;-74
2023/10/19 05:00:55;;;;;;;3.20;2.80;;;12.20;99.90;;;;;;5039030;28;20991;-73
2023/10/19 05:03:23;;;;;;;4.10;3.23;;;12.20;99.90;;;;;;5036085;28;20634;-73
2023/10/19 05:05:51;;;;;;;3.60;3.30;;;12.20;99.90;;;;;;5037146;28;20667;-73
2023/10/19 05:08:36;;;;;;;4.60;2.90;;;12.20;99.90;;;;;;5031128;28;20631;-73
2023/10/19 05:11:04;;;;;;;4.13;3.10;;;12.30;99.90;;;;;;5037603;28;20623;-73
2023/10/19 05:13:32;;;;;;;4.50;2.77;;;12.30;99.90;;;;;;5037386;28;20630;-73
2023/10/19 05:15:59;;;;;;;3.27;2.43;;;12.30;99.90;;;;;;5037976;28;21213;-72
2023/10/19 05:18:27;;;;;;;3.10;2.90;;;12.30;99.90;;;;;;5036864;28;20627;-72
2023/10/19 05:20:56;;;;;;;3.27;3.03;;;12.20;99.90;;;;;;5035009;28;21161;-72
2023/10/19 05:23:24;;;;;;;3.30;3.00;;;12.30;99.90;;;;;;5037181;28;20627;-72
2023/10/19 05:25:53;;;;;;;5.73;3.80;;;12.30;99.90;;;;;;5037626;28;20670;-72
2023/10/19 05:28:21;;;;;;;4.00;3.57;;;12.20;99.90;;;;;;5036090;28;20641;-72
2023/10/19 05:30:49;;;;;;;5.37;4.00;;;12.20;99.90;;;;;;5037446;28;20966;-72
2023/10/19 05:33:16;;;;;;;4.23;3.30;;;12.20;99.90;;;;;;5037798;28;20626;-72
2023/10/19 05:35:44;;;;;;;3.70;3.40;;;12.20;99.90;;;;;;5036224;28;20622;-72
2023/10/19 05:38:11;;;;;;;3.77;3.47;;;12.20;99.90;;;;;;5037691;28;20622;-73
2023/10/19 05:40:38;;;;;;;3.43;3.13;;;12.20;99.90;;;;;;5037333;28;21198;-72
2023/10/19 05:43:07;;;;;;;5.87;3.57;;;12.20;99.90;;;;;;5037418;28;20700;-72
2023/10/19 05:45:36;;;;;;;3.77;3.27;;;12.20;99.90;;;;;;5037846;28;21029;-73
2023/10/19 05:48:03;;;;;;;3.57;3.27;;;12.10;99.90;;;;;;5035687;28;20615;-72
2023/10/19 05:50:30;;;;;;;4.07;3.67;;;12.10;99.90;;;;;;5037241;28;20654;-72
2023/10/19 05:52:59;;;;;;;4.50;2.90;;;12.20;99.90;;;;;;5034280;28;20998;-72
2023/10/19 05:55:26;;;;;;;4.37;3.63;;;12.10;99.90;;;;;;5034859;28;20733;-73
2023/10/19 05:57:53;;;;;;;4.97;3.80;;;12.20;99.90;;;;;;5035971;28;20623;-71
2023/10/19 06:00:21;;;;;;;3.60;3.10;;;12.20;99.90;;;;;;5035479;28;20623;-72
2023/10/19 06:02:49;;;;;;;6.60;3.50;;;12.20;99.90;;;;;;5036148;28;20631;-71
2023/10/19 06:05:18;;;;;;;4.00;3.60;;;12.20;99.90;;;;;;5036318;28;21248;-72
2023/10/19 06:07:45;;;;;;;5.60;3.27;;;12.30;99.90;;;;;;5036303;28;20979;-72
2023/10/19 06:10:16;;;;;;;3.27;2.97;;;12.30;99.90;;;;;;5036020;28;20685;-72
2023/10/19 06:12:44;;;;;;;3.30;3.03;;;12.40;99.90;;;;;;5036065;28;20659;-70
2023/10/19 06:15:12;;;;;;;3.60;3.03;;;12.40;99.90;;;;;;5036004;28;20631;-70
2023/10/19 06:17:39;;;;;;;6.10;3.50;;;12.40;99.90;;;;;;5036099;28;20623;-70
2023/10/19 06:20:08;;;;;;;3.73;3.43;;;12.40;99.90;;;;;;5037481;28;20626;-70
2023/10/19 06:22:35;;;;;;;3.63;3.30;;;12.40;99.90;;;;;;5036582;28;20619;-70
2023/10/19 06:25:03;;;;;;;7.80;3.80;;;12.40;99.90;;;;;;5036886;28;20646;-70
2023/10/19 06:27:31;;;;;;;3.00;2.67;;;12.40;99.90;;;;;;5036156;28;21257;-70
2023/10/19 06:29:58;;;;;;;4.00;3.10;;;12.40;99.90;;;;;;5035968;28;21179;-70
2023/10/19 06:32:26;;;;;;;3.67;3.37;;;12.30;99.90;;;;;;5036894;28;20755;-70
2023/10/19 06:34:54;;;;;;;4.20;3.77;;;12.40;99.90;;;;;;5036054;28;20626;-71
2023/10/19 06:37:21;;;;;;;12.93;3.47;;;12.40;99.90;;;;;;5036149;28;20635;-70
2023/10/19 06:39:50;;;;;;;4.10;2.90;;;12.40;99.90;;;;;;5036887;28;20733;-71
2023/10/19 06:42:17;;;;;;;3.77;3.33;;;12.40;99.90;;;;;;5035221;28;21020;-70
2023/10/19 06:44:45;;;;;;;7.93;3.93;;;12.40;99.90;;;;;;5036209;28;20627;-70
2023/10/19 06:47:13;;;;;;;7.87;3.23;;;12.40;99.90;;;;;;5036491;28;20678;-70
2023/10/19 06:49:40;;;;;;;3.17;2.83;;;12.50;99.90;;;;;;5036801;28;20623;-71
2023/10/19 06:52:11;;;;;;;3.97;3.57;;;12.60;99.90;;;;;;5035416;28;20639;-71
2023/10/19 06:54:39;;;;;;;5.53;4.17;;;12.60;99.90;;;;;;5035693;28;20730;-71
2023/10/19 06:57:08;;;;;;;4.80;4.30;;;12.60;99.90;;;;;;5034273;28;20651;-71
2023/10/19 06:59:34;;;;;;;7.70;4.20;;;12.70;99.90;;;;;;5035564;28;20791;-70
2023/10/19 07:02:03;;;;;;;3.80;3.50;;;12.70;99.90;;;;;;5034621;28;20627;-70
2023/10/19 07:04:30;;;;;;;4.30;3.50;;;12.70;99.90;;;;;;5035709;28;20623;-70
2023/10/19 07:06:57;;;;;;;4.60;3.53;;;12.80;99.90;;;;;;5035074;28;21091;-71
2023/10/19 07:09:24;;;;;;;5.60;4.30;;;12.80;99.90;;;;;;5034681;28;20638;-71
2023/10/19 07:11:54;;;;;;;3.90;3.40;;;12.80;99.90;;;;;;5035247;28;20634;-70
2023/10/19 07:14:23;;;;;;;5.73;3.60;;;12.80;99.90;;;;;;5035295;28;20674;-70
2023/10/19 07:16:51;;;;;;;4.03;3.10;;;12.80;99.90;;;;;;5035499;28;20622;-70
2023/10/19 07:19:20;;;;;;;7.90;3.97;;;12.80;99.90;;;;;;5034955;28;20657;-71
2023/10/19 07:21:53;;;;;;;4.23;3.50;;;12.80;99.90;;;;;;5034902;28;20647;-70
2023/10/19 07:24:23;;;;;;;8.10;4.17;;;12.90;99.90;;;;;;5035138;28;21682;-71
2023/10/19 07:27:03;;;;;;;5.77;3.90;;;12.80;99.90;;;;;;5034743;28;20769;-70
2023/10/19 07:29:30;;;;;;;4.77;3.73;;;12.90;99.90;;;;;;5035013;28;21199;-71
2023/10/19 07:31:58;;;;;;;4.93;4.30;;;13.00;99.90;;;;;;5035136;28;20682;-71
2023/10/19 07:34:28;;;;;;;4.07;3.57;;;13.00;99.90;;;;;;5034966;28;20681;-71
2023/10/19 07:36:55;;;;;;;6.33;4.53;;;13.00;99.90;;;;;;5035162;28;20624;-71
2023/10/19 07:39:22;;;;;;;4.77;4.30;;;13.00;99.90;;;;;;5036136;28;20641;-71
2023/10/19 07:41:49;;;;;;;4.10;3.70;;;13.10;99.90;;;;;;5035899;28;20963;-70
2023/10/19 07:44:19;;;;;;;5.30;4.00;;;13.20;99.90;;;;;;5035117;28;21365;-70
2023/10/19 07:46:46;;;;;;;4.90;4.50;;;13.30;99.90;;;;;;5037145;28;20763;-70
2023/10/19 07:49:14;;;;;;;3.40;3.10;;;13.20;99.90;;;;;;5038090;28;20631;-70
2023/10/19 07:51:46;;;;;;;4.40;4.00;;;13.30;99.90;;;;;;5037403;28;20649;-70
2023/10/19 07:54:13;;;;;;;4.90;4.40;;;13.50;99.90;;;;;;5034068;28;20634;-70
2023/10/19 07:56:40;;;;;;;10.63;4.00;;;13.50;99.90;;;;;;5037174;28;20626;-70
2023/10/19 07:59:07;;;;;;;3.73;3.33;;;13.50;99.90;;;;;;5039283;28;21006;-71
2023/10/19 08:01:34;;;;;;;4.13;3.23;;;13.60;99.90;;;;;;5034497;28;21057;-70
2023/10/19 08:04:01;;;;;;;5.23;3.40;;;13.60;99.90;;;;;;5037835;28;20621;-71
2023/10/19 08:06:28;;;;;;;5.67;4.60;;;13.70;99.90;;;;;;5037984;28;20676;-70
2023/10/19 08:08:57;;;;;;;4.83;4.43;;;13.70;99.90;;;;;;5037949;28;20725;-71
2023/10/19 08:11:24;;;;;;;4.07;3.53;;;13.70;99.90;;;;;;5039415;28;20626;-70
2023/10/19 08:13:51;;;;;;;8.20;4.70;;;13.70;99.90;;;;;;5037929;28;20643;-70
2023/10/19 08:16:18;;;;;;;4.93;3.70;;;13.70;99.90;;;;;;5034944;28;20636;-70
2023/10/19 08:18:45;;;;;;;4.57;3.43;;;13.70;99.90;;;;;;5036969;28;20778;-70
2023/10/19 08:21:12;;;;;;;6.37;5.77;;;13.80;99.90;;;;;;5037626;28;20772;-70
2023/10/19 08:23:40;;;;;;;5.80;5.20;;;13.90;99.90;;;;;;5038283;28;20614;-70
2023/10/19 08:26:08;;;;;;;14.97;6.60;;;14.00;99.90;;;;;;5037586;28;21256;-70
2023/10/19 08:28:35;;;;;;;15.43;7.77;;;14.00;99.90;;;;;;5038312;28;20632;-70
2023/10/19 08:31:02;;;;;;;7.03;5.50;;;14.10;99.90;;;;;;5038852;28;20635;-70
2023/10/19 08:33:29;;;;;;;11.07;6.50;;;14.10;99.90;;;;;;5039336;28;20830;-70
2023/10/19 08:35:57;;;;;;;17.13;7.03;;;14.20;99.90;;;;;;5038501;28;20636;-70
2023/10/19 08:38:25;;;;;;;9.37;6.53;;;14.20;99.90;;;;;;5037824;28;20753;-70
2023/10/19 08:40:52;;;;;;;7.03;6.33;;;14.30;99.90;;;;;;5038481;28;20635;-70
2023/10/19 08:43:21;;;;;;;10.23;6.97;;;14.40;99.90;;;;;;5038122;28;21111;-70
2023/10/19 08:45:49;;;;;;;8.90;6.53;;;14.50;99.90;;;;;;5038666;28;20643;-70
2023/10/19 08:48:15;;;;;;;6.40;5.80;;;14.50;99.90;;;;;;5037931;28;20636;-70
2023/10/19 08:50:43;;;;;;;6.80;6.20;;;14.50;99.90;;;;;;5038135;28;20625;-70
2023/10/19 08:53:13;;;;;;;6.70;6.10;;;14.60;99.90;;;;;;5038826;28;20630;-70
2023/10/19 08:55:40;;;;;;;6.90;6.33;;;14.60;99.90;;;;;;5037775;28;20637;-70
2023/10/19 08:58:07;;;;;;;6.90;5.90;;;14.70;99.90;;;;;;5036979;28;20987;-70
2023/10/19 09:00:53;;;;;;;7.63;6.93;;;14.80;99.90;;;;;;5037509;28;20615;-70
2023/10/19 09:03:21;;;;;;;6.03;5.50;;;14.80;99.90;;;;;;5037876;28;20651;-70
2023/10/19 09:05:48;;;;;;;8.10;6.27;;;14.90;99.90;;;;;;5038631;28;20643;-70
2023/10/19 09:08:17;;;;;;;7.67;5.80;;;15.00;99.90;;;;;;5037094;28;21088;-70
2023/10/19 09:10:46;;;;;;;6.57;5.83;;;15.10;99.90;;;;;;5037937;28;20706;-70
2023/10/19 09:13:15;;;;;;;5.37;4.60;;;15.20;99.90;;;;;;5038116;28;20617;-70
2023/10/19 09:15:42;;;;;;;5.23;4.73;;;15.30;99.90;;;;;;5038012;28;20632;-70
2023/10/19 09:18:18;;;;;;;6.33;4.80;;;15.40;99.90;;;;;;5037602;28;21031;-70
2023/10/19 09:20:53;;;;;;;6.50;4.87;;;15.50;99.90;;;;;;5037021;28;22278;-70
2023/10/19 09:23:25;;;;;;;4.77;4.00;;;15.50;99.90;;;;;;5037871;28;20755;-70
2023/10/19 09:25:53;;;;;;;5.30;4.33;;;15.60;99.90;;;;;;5037891;28;20621;-70
2023/10/19 09:28:20;;;;;;;4.70;3.73;;;15.70;99.90;;;;;;5036984;28;20687;-70
2023/10/19 09:30:48;;;;;;;7.80;3.83;;;15.80;99.90;;;;;;5038182;28;20637;-70
2023/10/19 09:33:18;;;;;;;4.57;3.40;;;15.80;99.90;;;;;;5036947;28;20646;-70
2023/10/19 09:35:48;;;;;;;5.77;3.40;;;15.90;99.90;;;;;;5038104;28;21062;-71
2023/10/19 09:38:16;;;;;;;4.10;3.70;;;15.90;99.90;;;;;;5037668;28;20634;-71
2023/10/19 09:40:43;;;;;;;3.33;3.03;;;16.00;99.90;;;;;;5031670;28;20621;-71
2023/10/19 09:43:17;;;;;;;4.50;4.10;;;16.00;99.90;;;;;;5036385;28;21012;-71
2023/10/19 09:45:51;;;;;;;7.10;3.50;;;16.00;99.90;;;;;;5037138;28;20626;-71
2023/10/19 09:48:20;;;;;;;5.40;4.40;;;16.10;99.90;;;;;;5037984;28;21479;-71
2023/10/19 09:50:54;;;;;;;8.03;4.10;;;16.10;99.90;;;;;;5037133;28;20639;-71
2023/10/19 09:53:23;;;;;;;8.63;6.90;;;16.10;99.90;;;;;;5035508;28;20741;-70
2023/10/19 09:55:52;;;;;;;9.90;6.23;;;16.10;99.90;;;;;;5028085;28;20804;-70
2023/10/19 09:58:24;;;;;;;7.07;6.20;;;16.10;99.90;;;;;;5032927;28;20670;-70
2023/10/19 10:00:51;;;;;;;6.23;5.67;;;16.10;99.90;;;;;;5035626;28;21119;-70
2023/10/19 10:03:51;;;;;;;7.90;6.17;;;16.10;99.90;;;;;;5035405;28;20632;-70
2023/10/19 10:06:20;;;;;;;7.80;5.90;;;16.10;99.90;;;;;;4992391;28;20654;-71
2023/10/19 10:08:47;;;;;;;7.50;5.97;;;16.10;99.90;;;;;;5026301;28;21203;-72
2023/10/19 10:11:19;;;;;;;8.10;6.23;;;16.10;99.90;;;;;;5035607;28;20744;-72
2023/10/19 10:13:50;;;;;;;7.90;5.80;;;16.00;99.90;;;;;;5036074;28;20629;-72
2023/10/19 10:16:18;;;;;;;6.93;5.33;;;16.00;99.90;;;;;;5035949;28;20641;-72
2023/10/19 10:18:50;;;;;;;5.90;5.40;;;15.90;99.90;;;;;;5035477;28;20638;-72
2023/10/19 10:21:20;;;;;;;7.03;6.33;;;15.90;99.90;;;;;;5036492;28;20654;-73
2023/10/19 10:23:49;;;;;;;7.80;6.37;;;16.00;99.90;;;;;;5036457;28;20771;-72
2023/10/19 10:26:17;;;;;;;6.77;5.23;;;16.00;99.90;;;;;;5035361;28;20725;-72
2023/10/19 10:28:48;;;;;;;11.27;6.37;;;15.90;99.90;;;;;;5034980;28;21222;-73
2023/10/19 10:31:20;;;;;;;5.90;5.40;;;16.00;99.90;;;;;;5035902;28;20634;-74
2023/10/19 10:33:49;;;;;;;9.00;6.70;;;16.10;99.90;;;;;;5034734;28;20638;-75
2023/10/19 10:36:17;;;;;;;10.00;6.17;;;16.20;99.90;;;;;;5035360;28;21846;-73
2023/10/19 10:38:45;;;;;;;11.13;7.90;;;16.20;99.90;;;;;;5034882;28;20741;-73
2023/10/19 10:41:12;;;;;;;7.10;5.23;;;16.20;99.90;;;;;;5036223;28;20626;-76
2023/10/19 10:43:52;;;;;;;7.27;6.10;;;16.20;99.90;;;;;;5035397;28;20626;-76
2023/10/19 10:46:19;;;;;;;6.23;4.97;;;16.10;99.90;;;;;;5035120;28;20642;-73
2023/10/19 10:48:48;;;;;;;7.37;5.70;;;16.10;99.90;;;;;;5035073;28;21200;-72
2023/10/19 10:51:21;;;;;;;7.80;5.40;;;16.10;99.90;;;;;;5036609;28;20781;-72
2023/10/19 10:53:52;;;;;;;5.43;4.93;;;16.10;99.90;;;;;;5036303;28;20622;-73
2023/10/19 10:56:21;;;;;;;5.80;5.30;;;16.20;99.90;;;;;;5034484;28;20629;-72
2023/10/19 10:58:48;;;;;;;5.80;5.27;;;16.00;99.90;;;;;;5035781;28;21447;-73
2023/10/19 11:01:15;;;;;;;6.90;5.40;;;16.10;99.90;;;;;;5035610;28;20625;-72
2023/10/19 11:03:43;;;;;;;6.90;6.23;;;16.00;99.90;;;;;;5036395;28;20633;-72
2023/10/19 11:06:11;;;;;;;6.70;5.27;;;16.00;99.90;;;;;;5035398;28;20627;-73
2023/10/19 11:08:39;;;;;;;5.13;4.63;;;16.00;99.90;;;;;;5035209;28;20626;-72
2023/10/19 11:11:10;;;;;;;5.33;4.83;;;16.00;99.90;;;;;;5034595;28;20638;-72
2023/10/19 11:13:38;;;;;;;5.33;4.73;;;16.10;99.90;;;;;;5034819;28;20622;-72
2023/10/19 11:16:07;;;;;;;5.33;4.83;;;16.00;99.90;;;;;;5034614;28;20966;-72
2023/10/19 11:18:40;;;;;;;3.33;3.03;;;16.00;99.90;;;;;;5035315;28;20768;-72
2023/10/19 11:21:11;;;;;;;2.17;1.97;;;16.00;99.90;;;;;;5037009;28;21142;-72
2023/10/19 11:23:42;;;;;;;2.20;2.00;;;16.00;99.90;;;;;;5039036;28;20683;-72
2023/10/19 11:26:10;;;;;;;2.13;1.93;;;15.90;99.90;;;;;;5039436;28;21243;-69
2023/10/19 11:28:42;;;;;;;2.43;2.23;;;15.90;99.90;;;;;;5039960;28;20638;-69
2023/10/19 11:31:14;;;;;;;3.80;2.43;;;15.80;99.90;;;;;;5039508;28;20622;-69
2023/10/19 11:33:42;;;;;;;2.23;2.03;;;15.70;99.90;;;;;;5039507;28;20620;-69
2023/10/19 11:36:12;;;;;;;3.87;2.23;;;15.70;99.90;;;;;;5038556;28;21929;-69
2023/10/19 11:38:41;;;;;;;3.30;2.47;;;15.60;99.90;;;;;;5039263;28;21045;-70
2023/10/19 11:41:08;;;;;;;2.17;1.97;;;15.60;99.90;;;;;;5039912;28;20695;-70
2023/10/19 11:43:35;;;;;;;2.60;2.30;;;15.70;99.90;;;;;;5039596;28;20767;-70
2023/10/19 11:46:04;;;;;;;2.80;2.50;;;15.70;99.90;;;;;;5038615;28;21286;-70
2023/10/19 11:48:31;;;;;;;2.43;2.03;;;15.60;99.90;;;;;;5038564;28;20728;-69
2023/10/19 11:50:58;;;;;;;5.40;2.50;;;15.60;99.90;;;;;;5038094;28;21163;-70
2023/10/19 11:53:25;;;;;;;3.47;3.17;;;15.60;99.90;;;;;;5039134;28;20626;-70
2023/10/19 11:55:53;;;;;;;2.47;2.27;;;15.60;99.90;;;;;;5038705;28;20788;-70
2023/10/19 11:58:20;;;;;;;3.40;2.30;;;15.60;99.90;;;;;;5038849;28;20675;-70
2023/10/19 12:00:47;;;;;;;4.77;2.40;;;15.70;99.90;;;;;;5039202;28;20629;-70
2023/10/19 12:03:14;;;;;;;2.23;2.03;;;15.70;99.90;;;;;;5038332;28;20632;-70
2023/10/19 12:05:42;;;;;;;2.30;1.97;;;15.70;99.90;;;;;;5038820;28;20626;-70
2023/10/19 12:08:09;;;;;;;3.03;2.13;;;15.70;99.90;;;;;;5038511;28;20661;-70
2023/10/19 12:10:36;;;;;;;2.20;2.00;;;15.70;99.90;;;;;;5038304;28;20731;-70
2023/10/19 12:13:07;;;;;;;3.20;2.80;;;15.70;99.90;;;;;;5037404;28;21269;-70
2023/10/19 12:15:34;;;;;;;4.70;3.43;;;15.60;99.90;;;;;;5037180;28;20643;-70
2023/10/19 12:18:01;;;;;;;4.47;2.00;;;15.70;99.90;;;;;;5037837;28;21303;-70
2023/10/19 12:20:30;;;;;;;3.30;2.23;;;15.60;99.90;;;;;;5038524;28;20848;-70
2023/10/19 12:22:58;;;;;;;9.33;3.70;;;15.70;99.90;;;;;;5038260;28;20648;-70
2023/10/19 12:25:29;;;;;;;2.73;2.53;;;15.70;99.90;;;;;;5038913;28;21659;-70
2023/10/19 12:27:57;;;;;;;2.70;2.50;;;15.70;99.90;;;;;;5038036;28;20655;-70
2023/10/19 12:30:31;;;;;;;2.70;2.50;;;15.60;99.90;;;;;;5038162;28;20683;-70
2023/10/19 12:33:01;;;;;;;2.63;2.43;;;15.70;99.90;;;;;;5037028;28;21016;-70
2023/10/19 12:35:42;;;;;;;3.37;2.37;;;15.70;99.90;;;;;;5037989;28;20655;-69
2023/10/19 12:38:15;;;;;;;3.30;2.30;;;15.60;99.90;;;;;;5038322;28;20670;-70
2023/10/19 12:40:43;;;;;;;3.00;2.60;;;15.60;99.90;;;;;;5037203;28;21522;-70
2023/10/19 12:43:12;;;;;;;4.33;2.93;;;15.60;99.90;;;;;;5038452;28;21694;-70
2023/10/19 12:45:41;;;;;;;4.10;3.63;;;15.50;99.90;;;;;;5037697;28;20633;-70
2023/10/19 12:48:10;;;;;;;3.73;3.10;;;15.50;99.90;;;;;;5037598;28;20650;-70
2023/10/19 12:50:38;;;;;;;4.37;3.30;;;15.40;99.90;;;;;;5037836;28;20636;-70
2023/10/19 12:53:06;;;;;;;4.73;4.33;;;15.40;99.90;;;;;;5036659;28;21245;-70
2023/10/19 12:55:33;;;;;;;4.83;4.43;;;15.40;99.90;;;;;;5037782;28;21097;-70